createdAt,value
2019-04-10T00:01:01.482Z,11.74
2019-04-10T00:03:37.865Z,11.72
2019-04-10T00:06:06.955Z,11.67
2019-04-10T00:08:38.703Z,11.57
2019-04-10T00:11:12.283Z,11.49
2019-04-10T00:13:45.039Z,11.43
2019-04-10T00:16:18.289Z,11.32
2019-04-10T00:18:50.798Z,11.25
2019-04-10T00:21:23.494Z,11.16
2019-04-10T00:23:55.544Z,11.09
2019-04-10T00:26:27.858Z,11.04
2019-04-10T00:29:00.233Z,11.01
2019-04-10T00:31:32.233Z,10.98
2019-04-10T00:34:03.899Z,10.94
2019-04-10T00:36:35.328Z,10.93
2019-04-10T00:39:09.105Z,10.92
2019-04-10T00:41:40.735Z,10.92
2019-04-10T00:44:13.313Z,10.93
2019-04-10T00:46:45.047Z,10.90
2019-04-10T00:49:17.590Z,10.87
2019-04-10T00:51:49.973Z,10.81
2019-04-10T00:54:21.735Z,10.76
2019-04-10T00:56:53.505Z,10.70
2019-04-10T00:59:24.900Z,10.65
2019-04-10T01:01:56.353Z,10.63
2019-04-10T01:04:28.693Z,10.58
2019-04-10T01:07:00.252Z,10.58
2019-04-10T01:09:31.695Z,10.59
2019-04-10T01:12:05.727Z,10.58
2019-04-10T01:14:40.195Z,10.55
2019-04-10T01:17:11.826Z,10.49
2019-04-10T01:19:43.966Z,10.45
2019-04-10T01:22:16.783Z,10.37
2019-04-10T01:24:48.891Z,10.35
2019-04-10T01:27:20.602Z,10.33
2019-04-10T01:29:52.265Z,10.33
2019-04-10T01:32:23.938Z,10.34
2019-04-10T01:34:55.947Z,10.32
2019-04-10T01:37:27.706Z,10.30
2019-04-10T01:40:00.830Z,10.29
2019-04-10T01:42:32.447Z,10.28
2019-04-10T01:45:06.100Z,10.28
2019-04-10T01:47:37.762Z,10.26
2019-04-10T01:50:10.403Z,10.25
2019-04-10T01:52:42.158Z,10.26
2019-04-10T01:55:21.372Z,10.25
2019-04-10T01:57:48.142Z,10.24
2019-04-10T02:00:22.251Z,10.18
2019-04-10T02:02:54.022Z,10.12
2019-04-10T02:05:25.524Z,10.10
2019-04-10T02:08:05.307Z,10.09
2019-04-10T02:10:30.340Z,10.07
2019-04-10T02:13:01.867Z,10.06
2019-04-10T02:15:34.280Z,10.03
2019-04-10T02:18:05.871Z,10.02
2019-04-10T02:20:37.459Z,10.01
2019-04-10T02:23:09.981Z,10.00
2019-04-10T02:25:41.781Z,9.97
2019-04-10T02:28:13.283Z,9.97
2019-04-10T02:30:45.998Z,9.90
2019-04-10T02:33:17.951Z,9.84
2019-04-10T02:35:49.405Z,9.82
2019-04-10T02:38:37.442Z,9.81
2019-04-10T02:40:55.564Z,9.81
2019-04-10T02:43:27.440Z,9.82
2019-04-10T02:46:00.031Z,9.82
2019-04-10T02:48:33.770Z,9.81
2019-04-10T02:51:06.166Z,9.81
2019-04-10T02:53:39.334Z,9.77
2019-04-10T02:56:11.819Z,9.75
2019-04-10T02:58:44.536Z,9.71
2019-04-10T03:01:17.401Z,9.66
2019-04-10T03:03:50.233Z,9.65
2019-04-10T03:06:22.861Z,9.65
2019-04-10T03:09:07.602Z,9.69
2019-04-10T03:11:28.105Z,9.70
2019-04-10T03:14:01.366Z,9.65
2019-04-10T03:16:32.825Z,9.64
2019-04-10T03:19:05.331Z,9.64
2019-04-10T03:21:37.435Z,9.65
2019-04-10T03:24:09.719Z,9.70
2019-04-10T03:26:41.612Z,9.83
2019-04-10T03:29:13.698Z,10.10
2019-04-10T03:31:47.471Z,10.35
2019-04-10T03:34:33.187Z,10.56
2019-04-10T03:37:02.898Z,10.70
2019-04-10T03:39:35.978Z,10.82
2019-04-10T03:42:08.531Z,10.85
2019-04-10T03:44:40.877Z,10.91
2019-04-10T03:47:13.317Z,11.01
2019-04-10T03:49:54.075Z,11.21
2019-04-10T03:52:27.441Z,11.48
2019-04-10T03:54:59.049Z,11.89
2019-04-10T03:57:30.909Z,12.29
2019-04-10T04:00:03.665Z,12.65
2019-04-10T04:02:37.865Z,12.96
2019-04-10T04:05:10.649Z,13.17
2019-04-10T04:07:43.523Z,13.45
2019-04-10T04:10:16.250Z,13.98
2019-04-10T04:12:49.154Z,14.42
2019-04-10T04:15:21.967Z,14.86
2019-04-10T04:17:54.722Z,15.18
2019-04-10T04:20:28.680Z,15.48
2019-04-10T04:23:01.355Z,15.62
2019-04-10T04:25:33.251Z,15.80
2019-04-10T04:28:04.909Z,15.98
2019-04-10T04:30:36.629Z,16.01
2019-04-10T04:33:09.492Z,16.08
2019-04-10T04:35:42.666Z,16.35
2019-04-10T04:38:16.196Z,16.78
2019-04-10T04:40:48.368Z,16.88
2019-04-10T04:43:21.619Z,17.24
2019-04-10T04:45:53.245Z,17.18
2019-04-10T04:48:24.824Z,17.63
2019-04-10T04:50:56.834Z,17.71
2019-04-10T04:53:28.402Z,17.71
2019-04-10T04:56:00.005Z,17.46
2019-04-10T04:58:31.512Z,17.56
2019-04-10T05:01:04.232Z,17.49
2019-04-10T05:03:36.096Z,17.68
2019-04-10T05:06:09.222Z,17.74
2019-04-10T05:08:41.976Z,18.15
2019-04-10T05:11:13.966Z,18.37
2019-04-10T05:13:45.567Z,18.77
2019-04-10T05:16:18.670Z,19.22
2019-04-10T05:18:50.531Z,19.13
2019-04-10T05:21:23.173Z,20.01
2019-04-10T05:23:55.441Z,20.04
2019-04-10T05:26:27.804Z,20.11
2019-04-10T05:29:02.677Z,20.27
2019-04-10T05:31:34.425Z,20.42
2019-04-10T05:34:06.178Z,19.88
2019-04-10T05:36:37.830Z,19.78
2019-04-10T05:39:10.648Z,20.16
2019-04-10T05:41:42.153Z,20.87
2019-04-10T05:44:13.809Z,20.61
2019-04-10T05:46:47.597Z,20.19
2019-04-10T05:49:20.317Z,19.91
2019-04-10T05:51:52.119Z,19.98
2019-04-10T05:54:24.645Z,20.00
2019-04-10T05:56:56.498Z,19.79
2019-04-10T05:59:28.212Z,19.48
2019-04-10T06:02:01.011Z,19.23
2019-04-10T06:04:33.898Z,18.48
2019-04-10T06:07:05.416Z,18.42
2019-04-10T06:09:38.593Z,18.76
2019-04-10T06:12:10.378Z,19.45
2019-04-10T06:14:42.115Z,20.22
2019-04-10T06:17:14.170Z,20.59
2019-04-10T06:19:46.847Z,20.71
2019-04-10T06:22:18.819Z,20.58
2019-04-10T06:24:52.209Z,20.61
2019-04-10T06:27:24.194Z,20.63
2019-04-10T06:29:57.314Z,21.04
2019-04-10T06:32:29.583Z,21.49
2019-04-10T06:35:01.910Z,21.93
2019-04-10T06:37:34.526Z,22.23
2019-04-10T06:40:14.302Z,22.78
2019-04-10T06:42:48.306Z,23.46
2019-04-10T06:45:13.495Z,23.41
2019-04-10T06:47:45.002Z,23.55
2019-04-10T06:50:16.925Z,23.42
2019-04-10T06:52:49.278Z,23.66
2019-04-10T06:55:21.639Z,23.63
2019-04-10T06:57:56.303Z,23.92
2019-04-10T07:00:26.707Z,23.93
2019-04-10T07:02:58.874Z,23.81
2019-04-10T07:05:37.953Z,24.45
2019-04-10T07:08:12.554Z,24.51
2019-04-10T07:10:48.274Z,24.56
2019-04-10T07:13:11.857Z,24.37
2019-04-10T07:15:45.140Z,24.55
2019-04-10T07:18:20.305Z,24.86
2019-04-10T07:20:51.093Z,24.86
2019-04-10T07:23:27.471Z,24.46
2019-04-10T07:25:56.376Z,24.49
2019-04-10T07:28:28.123Z,24.75
2019-04-10T07:31:04.981Z,24.90
2019-04-10T07:33:34.943Z,24.42
2019-04-10T07:36:11.227Z,24.29
2019-04-10T07:38:41.404Z,24.88
2019-04-10T07:41:20.113Z,25.26
2019-04-10T07:43:52.436Z,25.64
2019-04-10T07:46:20.408Z,25.43
2019-04-10T07:48:52.484Z,25.44
2019-04-10T07:51:24.309Z,25.72
2019-04-10T07:53:55.706Z,25.91
2019-04-10T07:56:27.527Z,25.95
2019-04-10T07:59:02.683Z,26.03
2019-04-10T08:01:35.453Z,26.02
2019-04-10T08:04:08.239Z,25.75
2019-04-10T08:06:40.027Z,25.75
2019-04-10T08:09:12.438Z,25.81
2019-04-10T08:11:44.822Z,26.37
2019-04-10T08:14:16.924Z,26.37
2019-04-10T08:16:49.790Z,26.63
2019-04-10T08:19:21.267Z,26.50
2019-04-10T08:21:54.887Z,26.43
2019-04-10T08:24:26.701Z,26.35
2019-04-10T08:26:58.180Z,24.98
2019-04-10T08:29:30.261Z,25.37
2019-04-10T08:32:01.783Z,25.51
2019-04-10T08:34:33.608Z,26.17
2019-04-10T08:37:05.154Z,26.56
2019-04-10T08:39:43.001Z,26.21
2019-04-10T08:42:12.689Z,25.88
2019-04-10T08:44:44.551Z,25.67
2019-04-10T08:47:17.073Z,26.03
2019-04-10T08:49:50.414Z,26.05
2019-04-10T08:52:22.104Z,25.14
2019-04-10T08:54:53.696Z,24.75
2019-04-10T08:57:25.644Z,25.12
2019-04-10T08:59:58.309Z,25.21
2019-04-10T09:02:30.393Z,25.22
2019-04-10T09:05:03.519Z,25.70
2019-04-10T09:07:35.911Z,26.37
2019-04-10T09:10:08.202Z,26.62
2019-04-10T09:12:41.046Z,27.05
2019-04-10T09:15:12.573Z,27.41
2019-04-10T09:17:44.130Z,27.06
2019-04-10T09:20:16.349Z,26.62
2019-04-10T09:23:10.726Z,26.37
2019-04-10T09:25:22.929Z,26.07
2019-04-10T09:27:55.896Z,25.98
2019-04-10T09:30:27.378Z,25.47
2019-04-10T09:32:58.992Z,24.90
2019-04-10T09:35:33.157Z,24.60
2019-04-10T09:38:04.907Z,24.35
2019-04-10T09:40:36.447Z,24.54
2019-04-10T09:43:09.232Z,24.70
2019-04-10T09:45:41.628Z,24.57
2019-04-10T09:48:13.169Z,24.51
2019-04-10T09:50:45.876Z,24.64
2019-04-10T09:53:17.599Z,24.64
2019-04-10T09:55:50.204Z,24.68
2019-04-10T09:58:23.963Z,24.72
2019-04-10T10:00:56.535Z,24.88
2019-04-10T10:03:28.251Z,24.71
2019-04-10T10:06:00.292Z,24.51
2019-04-10T10:08:33.815Z,24.31
2019-04-10T10:11:06.385Z,24.39
2019-04-10T10:13:39.437Z,24.38
2019-04-10T10:16:11.095Z,24.48
2019-04-10T10:18:43.667Z,24.61
2019-04-10T10:21:16.519Z,24.75
2019-04-10T10:23:48.570Z,24.58
2019-04-10T10:26:22.166Z,24.35
2019-04-10T10:28:54.589Z,24.17
2019-04-10T10:31:28.426Z,24.41
2019-04-10T10:34:00.308Z,24.68
2019-04-10T10:36:40.703Z,24.64
2019-04-10T10:39:12.957Z,24.93
2019-04-10T10:41:44.712Z,25.08
2019-04-10T10:44:17.383Z,25.07
2019-04-10T10:46:49.526Z,25.09
2019-04-10T10:49:21.206Z,24.93
2019-04-10T10:51:53.317Z,24.89
2019-04-10T10:54:26.804Z,24.96
2019-04-10T10:56:58.536Z,24.78
2019-04-10T10:59:29.983Z,24.88
2019-04-10T11:02:02.359Z,25.08
2019-04-10T11:04:34.052Z,25.07
2019-04-10T11:07:06.892Z,25.00
2019-04-10T11:09:40.216Z,25.01
2019-04-10T11:12:13.598Z,25.11
2019-04-10T11:14:48.181Z,25.11
2019-04-10T11:17:20.005Z,25.28
2019-04-10T11:19:51.441Z,25.26
2019-04-10T11:24:57.535Z,25.22
2019-04-10T11:27:29.493Z,25.31
2019-04-10T11:30:01.448Z,25.30
2019-04-10T11:32:36.606Z,25.36
2019-04-10T11:35:08.738Z,25.45
2019-04-10T11:37:44.856Z,25.38
2019-04-10T11:40:15.817Z,25.40
2019-04-10T11:42:47.815Z,25.49
2019-04-10T11:45:19.323Z,25.75
2019-04-10T11:47:52.837Z,25.71
2019-04-10T11:50:25.578Z,25.38
2019-04-10T11:53:00.361Z,24.90
2019-04-10T11:55:35.425Z,24.80
2019-04-10T11:58:05.657Z,24.76
2019-04-10T12:00:50.501Z,24.96
2019-04-10T12:03:15.910Z,24.99
2019-04-10T12:05:51.002Z,25.20
2019-04-10T12:08:44.730Z,25.43
2019-04-10T12:13:28.328Z,25.59
2019-04-10T12:16:00.972Z,25.08
2019-04-10T12:18:33.267Z,24.83
2019-04-10T12:21:05.237Z,24.95
2019-04-10T12:23:36.956Z,24.94
2019-04-10T12:26:09.555Z,24.60
2019-04-10T12:28:42.320Z,24.30
2019-04-10T12:31:14.075Z,24.24
2019-04-10T12:33:46.543Z,24.43
2019-04-10T12:36:20.447Z,24.47
2019-04-10T12:38:54.095Z,24.65
2019-04-10T12:41:25.676Z,24.82
2019-04-10T12:43:57.155Z,24.69
2019-04-10T12:46:28.942Z,24.50
2019-04-10T12:49:02.239Z,24.37
2019-04-10T12:51:34.855Z,24.37
2019-04-10T12:54:07.664Z,24.22
2019-04-10T12:56:40.177Z,24.10
2019-04-10T12:59:12.044Z,24.01
2019-04-10T13:01:45.144Z,24.03
2019-04-10T13:04:17.912Z,23.99
2019-04-10T13:06:52.602Z,23.96
2019-04-10T13:09:24.252Z,23.98
2019-04-10T13:11:56.532Z,23.93
2019-04-10T13:14:29.283Z,23.89
2019-04-10T13:17:00.912Z,23.80
2019-04-10T13:19:34.135Z,23.74
2019-04-10T13:22:05.548Z,23.71
2019-04-10T13:24:37.558Z,23.69
2019-04-10T13:27:10.366Z,23.71
2019-04-10T13:29:42.708Z,23.64
2019-04-10T13:32:14.183Z,23.70
2019-04-10T13:34:45.825Z,23.78
2019-04-10T13:37:17.987Z,23.80
2019-04-10T13:39:50.885Z,23.93
2019-04-10T13:42:23.143Z,24.03
2019-04-10T13:44:55.740Z,24.08
2019-04-10T13:47:29.109Z,24.17
2019-04-10T13:50:00.624Z,24.18
2019-04-10T13:52:32.224Z,24.17
2019-04-10T13:55:05.195Z,24.05
2019-04-10T13:57:36.991Z,24.02
2019-04-10T14:00:11.380Z,23.95
2019-04-10T14:02:43.337Z,23.82
2019-04-10T14:05:17.796Z,23.67
2019-04-10T14:07:49.481Z,23.66
2019-04-10T14:10:21.090Z,23.62
2019-04-10T14:12:53.475Z,23.59
2019-04-10T14:15:27.224Z,23.63
2019-04-10T14:17:59.818Z,23.65
2019-04-10T14:20:31.695Z,23.65
2019-04-10T14:23:10.639Z,23.67
2019-04-10T14:26:02.229Z,23.65
2019-04-10T14:28:36.150Z,23.52
2019-04-10T14:31:11.867Z,23.14
2019-04-10T14:33:44.792Z,22.81
2019-04-10T14:36:16.662Z,22.39
2019-04-10T14:38:49.872Z,21.87
2019-04-10T14:41:22.148Z,21.36
2019-04-10T14:43:56.249Z,20.99
2019-04-10T14:46:28.875Z,20.74
2019-04-10T14:49:00.667Z,20.61
2019-04-10T14:51:34.710Z,20.56
2019-04-10T14:54:06.442Z,20.52
2019-04-10T14:56:38.120Z,20.55
2019-04-10T14:59:09.624Z,20.56
2019-04-10T15:01:42.036Z,20.54
2019-04-10T15:04:13.556Z,20.54
2019-04-10T15:06:45.836Z,20.51
2019-04-10T15:09:25.354Z,20.41
2019-04-10T15:11:53.584Z,20.40
2019-04-10T15:14:25.995Z,20.35
2019-04-10T15:17:02.652Z,20.14
2019-04-10T15:19:34.195Z,19.88
2019-04-10T15:22:05.941Z,19.56
2019-04-10T15:24:37.680Z,19.33
2019-04-10T15:27:11.561Z,19.16
2019-04-10T15:29:49.061Z,19.06
2019-04-10T15:32:22.969Z,18.98
2019-04-10T15:34:55.851Z,18.94
2019-04-10T15:37:31.242Z,18.90
2019-04-10T15:40:12.223Z,18.89
2019-04-10T15:42:40.549Z,18.86
2019-04-10T15:45:12.838Z,18.83
2019-04-10T15:47:52.498Z,18.76
2019-04-10T15:50:26.568Z,18.77
2019-04-10T15:53:04.081Z,18.72
2019-04-10T15:55:36.068Z,18.67
2019-04-10T15:58:11.861Z,18.73
2019-04-10T16:00:47.726Z,18.67
2019-04-10T16:03:21.836Z,18.61
2019-04-10T16:05:57.734Z,18.51
2019-04-10T16:08:32.401Z,18.30
2019-04-10T16:11:12.124Z,18.20
2019-04-10T16:13:46.401Z,18.20
2019-04-10T16:16:34.835Z,18.24
2019-04-10T16:19:16.232Z,18.25
2019-04-10T16:21:58.295Z,18.22
2019-04-10T16:24:31.252Z,18.27
2019-04-10T16:27:03.466Z,18.42
2019-04-10T16:29:36.516Z,18.50
2019-04-10T16:32:10.707Z,18.52
2019-04-10T16:34:44.764Z,18.53
2019-04-10T16:37:16.725Z,18.47
2019-04-10T16:39:58.596Z,18.43
2019-04-10T16:42:26.673Z,18.31
2019-04-10T16:45:03.948Z,18.21
2019-04-10T16:47:32.376Z,18.13
2019-04-10T16:50:09.157Z,17.96
2019-04-10T16:52:41.034Z,17.91
2019-04-10T16:55:12.511Z,17.87
2019-04-10T16:57:45.322Z,17.81
2019-04-10T17:00:19.511Z,17.78
2019-04-10T17:02:52.732Z,17.74
2019-04-10T17:05:24.793Z,17.59
2019-04-10T17:07:59.228Z,17.49
2019-04-10T17:10:30.917Z,17.43
2019-04-10T17:13:02.502Z,17.36
2019-04-10T17:15:34.382Z,17.24
2019-04-10T17:18:08.607Z,17.18
2019-04-10T17:20:40.539Z,17.16
2019-04-10T17:23:12.426Z,16.87
2019-04-10T17:25:44.473Z,16.75
2019-04-10T17:28:16.460Z,16.72
2019-04-10T17:30:49.653Z,17.13
2019-04-10T17:33:21.258Z,17.03
2019-04-10T17:35:55.996Z,16.88
2019-04-10T17:38:28.710Z,16.68
2019-04-10T17:41:03.821Z,16.56
2019-04-10T17:43:35.091Z,16.47
2019-04-10T17:46:07.239Z,16.36
2019-04-10T17:48:41.993Z,16.27
2019-04-10T17:51:15.601Z,16.18
2019-04-10T17:53:47.441Z,16.23
2019-04-10T17:56:20.106Z,16.26
2019-04-10T17:58:54.047Z,16.14
2019-04-10T18:01:27.151Z,15.88
2019-04-10T18:04:02.982Z,15.75
2019-04-10T18:06:33.287Z,15.63
2019-04-10T18:09:07.835Z,15.65
2019-04-10T18:11:39.911Z,15.68
2019-04-10T18:14:11.274Z,15.69
2019-04-10T18:16:44.199Z,15.65
2019-04-10T18:19:19.184Z,15.61
2019-04-10T18:21:51.008Z,15.60
2019-04-10T18:24:22.747Z,15.56
2019-04-10T18:26:56.598Z,15.50
2019-04-10T18:29:27.797Z,15.44
2019-04-10T18:32:00.915Z,15.33
2019-04-10T18:34:35.576Z,15.30
2019-04-10T18:37:11.078Z,15.36
2019-04-10T18:39:43.348Z,15.37
2019-04-10T18:42:14.939Z,15.42
2019-04-10T18:44:46.951Z,15.38
2019-04-10T18:47:18.704Z,15.38
2019-04-10T18:49:50.424Z,15.41
2019-04-10T18:52:23.357Z,15.39
2019-04-10T18:54:56.935Z,15.39
2019-04-10T18:57:30.486Z,15.37
2019-04-10T19:00:21.908Z,15.36
2019-04-10T19:03:15.090Z,15.34
2019-04-10T19:05:48.398Z,15.31
2019-04-10T19:08:20.060Z,15.29
2019-04-10T19:11:07.635Z,15.29
2019-04-10T19:13:28.652Z,15.34
2019-04-10T19:16:01.363Z,15.35
2019-04-10T19:18:35.502Z,15.35
2019-04-10T19:21:07.636Z,15.34
2019-04-10T19:23:39.399Z,15.34
2019-04-10T19:26:13.927Z,15.33
2019-04-10T19:28:46.581Z,15.34
2019-04-10T19:31:24.002Z,15.35
2019-04-10T19:33:54.869Z,15.35
2019-04-10T19:36:27.985Z,15.34
2019-04-10T19:39:00.099Z,15.32
2019-04-10T19:41:37.883Z,15.30
2019-04-10T19:44:09.242Z,15.29
2019-04-10T19:46:42.421Z,15.28
2019-04-10T19:49:16.285Z,15.26
2019-04-10T19:51:48.763Z,15.24
2019-04-10T19:54:20.538Z,15.22
2019-04-10T19:56:52.993Z,15.17
2019-04-10T19:59:27.310Z,15.16
2019-04-10T20:02:00.312Z,15.12
2019-04-10T20:04:32.503Z,15.09
2019-04-10T20:07:04.859Z,15.07
2019-04-10T20:09:36.948Z,15.02
2019-04-10T20:12:08.797Z,14.95
2019-04-10T20:14:40.913Z,14.91
2019-04-10T20:17:13.540Z,14.83
2019-04-10T20:19:46.659Z,14.78
2019-04-10T20:22:18.902Z,14.72
2019-04-10T20:24:51.925Z,14.68
2019-04-10T20:27:23.764Z,14.64
2019-04-10T20:29:55.438Z,14.55
2019-04-10T20:32:28.062Z,14.45
2019-04-10T20:35:00.120Z,14.35
2019-04-10T20:37:32.953Z,14.19
2019-04-10T20:40:06.188Z,14.07
2019-04-10T20:42:38.278Z,14.00
2019-04-10T20:45:11.612Z,13.98
2019-04-10T20:47:43.499Z,13.95
2019-04-10T20:50:15.428Z,13.78
2019-04-10T20:52:47.339Z,13.74
2019-04-10T20:55:19.568Z,13.68
2019-04-10T20:57:52.097Z,13.66
2019-04-10T21:00:32.190Z,13.68
2019-04-10T21:03:04.146Z,13.65
2019-04-10T21:05:35.956Z,13.60
2019-04-10T21:08:07.518Z,13.57
2019-04-10T21:10:39.323Z,13.56
2019-04-10T21:13:10.947Z,13.59
2019-04-10T21:15:42.588Z,13.61
2019-04-10T21:18:15.236Z,13.63
2019-04-10T21:20:47.314Z,13.66
2019-04-10T21:23:19.406Z,13.67
2019-04-10T21:25:51.880Z,13.66
2019-04-10T21:28:23.853Z,13.59
2019-04-10T21:31:03.106Z,13.67
2019-04-10T21:33:52.698Z,13.53
2019-04-10T21:36:24.312Z,13.61
2019-04-10T21:38:56.679Z,13.52
2019-04-10T21:41:30.623Z,13.50
2019-04-10T21:44:02.545Z,13.53
2019-04-10T21:46:34.668Z,13.57
2019-04-10T21:49:06.291Z,13.61
2019-04-10T21:51:37.923Z,13.64
2019-04-10T21:54:09.926Z,13.66
2019-04-10T21:56:41.539Z,13.67
2019-04-10T21:59:15.930Z,13.70
2019-04-10T22:01:48.665Z,13.71
2019-04-10T22:04:21.137Z,13.70
2019-04-10T22:06:54.354Z,13.73
2019-04-10T22:09:30.581Z,13.73
2019-04-10T22:12:03.942Z,13.71
2019-04-10T22:14:35.617Z,13.70
2019-04-10T22:17:08.774Z,13.63
2019-04-10T22:19:41.002Z,13.57
2019-04-10T22:22:12.873Z,13.53
2019-04-10T22:24:44.647Z,13.51
2019-04-10T22:27:17.045Z,13.46
2019-04-10T22:29:48.903Z,13.44
2019-04-10T22:32:20.639Z,13.37
2019-04-10T22:34:52.819Z,13.34
2019-04-10T22:37:25.657Z,13.33
2019-04-10T22:39:58.627Z,13.25
2019-04-10T22:42:39.993Z,13.20
2019-04-10T22:45:05.308Z,13.19
2019-04-10T22:47:39.249Z,13.18
2019-04-10T22:50:11.049Z,13.18
2019-04-10T22:52:42.704Z,13.20
2019-04-10T22:55:14.283Z,13.19
2019-04-10T22:57:46.392Z,13.21
2019-04-10T23:00:24.298Z,13.21
2019-04-10T23:02:57.386Z,13.21
2019-04-10T23:05:29.607Z,13.21
2019-04-10T23:08:01.313Z,13.17
2019-04-10T23:10:33.276Z,13.13
2019-04-10T23:13:07.050Z,13.08
2019-04-10T23:15:39.743Z,13.03
2019-04-10T23:18:12.938Z,13.00
2019-04-10T23:20:44.832Z,13.02
2019-04-10T23:23:16.911Z,13.00
2019-04-10T23:25:48.842Z,13.00
2019-04-10T23:28:20.578Z,12.95
2019-04-10T23:30:52.954Z,12.87
2019-04-10T23:33:24.686Z,12.79
2019-04-10T23:35:56.176Z,12.70
2019-04-10T23:38:31.191Z,12.71
2019-04-10T23:41:03.232Z,12.72
2019-04-10T23:43:35.672Z,12.76
2019-04-10T23:46:08.348Z,12.79
2019-04-10T23:48:41.224Z,12.81
2019-04-10T23:51:12.998Z,12.79
2019-04-10T23:53:44.812Z,12.87
2019-04-10T23:56:17.688Z,12.92
2019-04-10T23:58:49.317Z,12.86
